HNT1988 KALB-TXKF
Flight info
| Callsign | HNT1988 |
|---|---|
| Flight time | 1h 56m |
| Altitude | 37000 |
| Route | NELIE DCT ACK DCT BORQE Y578 KAYYT/M079F370 L462 ANVER MOMOM1 |
| Aircraft | B38M/M-SDE1FGHILORVWXY/HB1 |
Departure
| Time | 2026-04-26 13:03 |
|---|---|
| Airport | Albany International Airport (KALB) |
Arrival
| Time | 2026-04-26 15:00 |
|---|---|
| Airport | L.F. Wade International Airport (TXKF) |
| Time | Latitude | Longitude | Altitude | Speed | Heading |
|---|---|---|---|---|---|
| 2026-04-26 12:08 | 42.74742 | -73.81088 | 297 ft | 0 kts | 198° |
| 2026-04-26 12:50 | 42.74752 | -73.81084 | 295 ft | 4 kts | 192° |
| 2026-04-26 12:50 | 42.74779 | -73.81082 | 296 ft | 4 kts | 169° |
| 2026-04-26 12:50 | 42.74803 | -73.81095 | 294 ft | 4 kts | 140° |
| 2026-04-26 12:50 | 42.74817 | -73.81122 | 296 ft | 4 kts | 98° |
| 2026-04-26 12:51 | 42.74818 | -73.81134 | 293 ft | 0 kts | 93° |
| 2026-04-26 12:54 | 42.74817 | -73.81128 | 293 ft | 3 kts | 93° |
| 2026-04-26 12:54 | 42.74815 | -73.81048 | 295 ft | 11 kts | 93° |
| 2026-04-26 12:55 | 42.74812 | -73.80933 | 295 ft | 13 kts | 91° |
| 2026-04-26 12:55 | 42.74816 | -73.80808 | 297 ft | 14 kts | 89° |
| 2026-04-26 12:55 | 42.74817 | -73.80681 | 296 ft | 12 kts | 87° |
| 2026-04-26 12:55 | 42.74774 | -73.80622 | 298 ft | 9 kts | 174° |
| 2026-04-26 12:56 | 42.74682 | -73.80616 | 296 ft | 18 kts | 178° |
| 2026-04-26 12:56 | 42.74547 | -73.80610 | 297 ft | 20 kts | 178° |
| 2026-04-26 12:56 | 42.74401 | -73.80604 | 297 ft | 21 kts | 178° |
| 2026-04-26 12:56 | 42.74251 | -73.80598 | 294 ft | 22 kts | 178° |
| 2026-04-26 12:57 | 42.74112 | -73.80591 | 296 ft | 20 kts | 178° |
| 2026-04-26 12:57 | 42.73967 | -73.80586 | 296 ft | 21 kts | 179° |
| 2026-04-26 12:57 | 42.73837 | -73.80582 | 296 ft | 16 kts | 178° |
| 2026-04-26 12:58 | 42.73734 | -73.80549 | 293 ft | 1 kts | 109° |
| 2026-04-26 12:58 | 42.73731 | -73.80531 | 295 ft | 3 kts | 98° |
| 2026-04-26 12:58 | 42.73730 | -73.80476 | 295 ft | 10 kts | 87° |
| 2026-04-26 12:58 | 42.73777 | -73.80428 | 295 ft | 8 kts | 1° |
| 2026-04-26 12:59 | 42.73794 | -73.80429 | 290 ft | 0 kts | 357° |
| 2026-04-26 13:00 | 42.73796 | -73.80429 | 294 ft | 1 kts | 357° |
| 2026-04-26 13:00 | 42.73804 | -73.80429 | 294 ft | 2 kts | 357° |
| 2026-04-26 13:00 | 42.73819 | -73.80430 | 291 ft | 3 kts | 356° |
| 2026-04-26 13:01 | 42.73835 | -73.80432 | 294 ft | 0 kts | 356° |
| 2026-04-26 13:02 | 42.73848 | -73.80433 | 294 ft | 11 kts | 356° |
| 2026-04-26 13:02 | 42.74150 | -73.80445 | 294 ft | 83 kts | 358° |
| 2026-04-26 13:03 | 42.74984 | -73.80481 | 296 ft | 152 kts | 358° |
| 2026-04-26 13:03 | 42.76164 | -73.80528 | 593 ft | 186 kts | 359° |
| 2026-04-26 13:03 | 42.77515 | -73.80476 | 1045 ft | 204 kts | 3° |
| 2026-04-26 13:03 | 42.78966 | -73.80339 | 1583 ft | 209 kts | 0° |
| 2026-04-26 13:04 | 42.80384 | -73.80374 | 2476 ft | 206 kts | 359° |
| 2026-04-26 13:04 | 42.81911 | -73.80444 | 2959 ft | 231 kts | 359° |
| 2026-04-26 13:04 | 42.83566 | -73.80256 | 3443 ft | 248 kts | 19° |
| 2026-04-26 13:04 | 42.84941 | -73.78903 | 3457 ft | 249 kts | 56° |
| 2026-04-26 13:05 | 42.85465 | -73.76670 | 3573 ft | 252 kts | 88° |
| 2026-04-26 13:05 | 42.85183 | -73.74307 | 3727 ft | 257 kts | 111° |
| 2026-04-26 13:05 | 42.84139 | -73.72351 | 3829 ft | 259 kts | 142° |
| 2026-04-26 13:05 | 42.82668 | -73.70909 | 3938 ft | 262 kts | 138° |
| 2026-04-26 13:06 | 42.81318 | -73.69269 | 3988 ft | 261 kts | 137° |
| 2026-04-26 13:06 | 42.79944 | -73.67604 | 4149 ft | 265 kts | 137° |
| 2026-04-26 13:06 | 42.78569 | -73.65953 | 5086 ft | 262 kts | 137° |
| 2026-04-26 13:06 | 42.77198 | -73.64340 | 6063 ft | 265 kts | 137° |
| 2026-04-26 13:07 | 42.75780 | -73.62672 | 7008 ft | 268 kts | 137° |
| 2026-04-26 13:07 | 42.74368 | -73.61016 | 7860 ft | 274 kts | 137° |
| 2026-04-26 13:07 | 42.72917 | -73.59315 | 8699 ft | 278 kts | 138° |
| 2026-04-26 13:07 | 42.71411 | -73.57552 | 9545 ft | 284 kts | 138° |
| 2026-04-26 13:08 | 42.69923 | -73.55811 | 10306 ft | 290 kts | 137° |
| 2026-04-26 13:08 | 42.68370 | -73.53977 | 10738 ft | 309 kts | 137° |
| 2026-04-26 13:08 | 42.66693 | -73.51967 | 11084 ft | 329 kts | 137° |
| 2026-04-26 13:08 | 42.64935 | -73.49862 | 11449 ft | 343 kts | 137° |
| 2026-04-26 13:09 | 42.63117 | -73.47697 | 11962 ft | 351 kts | 137° |
| 2026-04-26 13:09 | 42.61261 | -73.45524 | 12712 ft | 352 kts | 137° |
| 2026-04-26 13:09 | 42.59389 | -73.43344 | 13403 ft | 357 kts | 138° |
| 2026-04-26 13:09 | 42.57488 | -73.41135 | 14060 ft | 362 kts | 139° |
| 2026-04-26 13:10 | 42.55565 | -73.38910 | 14716 ft | 366 kts | 139° |
| 2026-04-26 13:10 | 42.53617 | -73.36658 | 15342 ft | 370 kts | 139° |
| 2026-04-26 13:10 | 42.51644 | -73.34379 | 15939 ft | 374 kts | 140° |
| 2026-04-26 13:10 | 42.49650 | -73.32076 | 16523 ft | 379 kts | 140° |
| 2026-04-26 13:11 | 42.47635 | -73.29754 | 17103 ft | 382 kts | 140° |
| 2026-04-26 13:11 | 42.45592 | -73.27403 | 17640 ft | 386 kts | 140° |
| 2026-04-26 13:11 | 42.43535 | -73.25035 | 18186 ft | 390 kts | 141° |
| 2026-04-26 13:11 | 42.41455 | -73.22644 | 18702 ft | 394 kts | 141° |
| 2026-04-26 13:12 | 42.39355 | -73.20233 | 19220 ft | 397 kts | 141° |
| 2026-04-26 13:12 | 42.37241 | -73.17808 | 19756 ft | 400 kts | 141° |
| 2026-04-26 13:12 | 42.35108 | -73.15363 | 20263 ft | 403 kts | 141° |
| 2026-04-26 13:12 | 42.32966 | -73.12910 | 20756 ft | 405 kts | 142° |
| 2026-04-26 13:13 | 42.30834 | -73.10475 | 21240 ft | 408 kts | 142° |
| 2026-04-26 13:13 | 42.28658 | -73.07989 | 21695 ft | 411 kts | 142° |
| 2026-04-26 13:13 | 42.26469 | -73.05489 | 22164 ft | 413 kts | 142° |
| 2026-04-26 13:13 | 42.24243 | -73.02953 | 22627 ft | 416 kts | 142° |
| 2026-04-26 13:14 | 42.22051 | -73.00457 | 23070 ft | 418 kts | 143° |
| 2026-04-26 13:14 | 42.19820 | -72.97920 | 23497 ft | 421 kts | 143° |
| 2026-04-26 13:14 | 42.17577 | -72.95372 | 23901 ft | 423 kts | 143° |
| 2026-04-26 13:14 | 42.15314 | -72.92803 | 24329 ft | 425 kts | 143° |
| 2026-04-26 13:15 | 42.13049 | -72.90234 | 24720 ft | 428 kts | 143° |
| 2026-04-26 13:15 | 42.10765 | -72.87648 | 25101 ft | 430 kts | 144° |
| 2026-04-26 13:15 | 42.08463 | -72.85044 | 25475 ft | 433 kts | 144° |
| 2026-04-26 13:15 | 42.06154 | -72.82433 | 25841 ft | 435 kts | 144° |
| 2026-04-26 13:16 | 42.03832 | -72.79811 | 26194 ft | 437 kts | 144° |
| 2026-04-26 13:16 | 42.01499 | -72.77182 | 26541 ft | 439 kts | 144° |
| 2026-04-26 13:16 | 41.99148 | -72.74535 | 26881 ft | 441 kts | 145° |
| 2026-04-26 13:16 | 41.96815 | -72.71904 | 27199 ft | 444 kts | 144° |
| 2026-04-26 13:17 | 41.93276 | -72.64949 | 27878 ft | 466 kts | 113° |
| 2026-04-26 13:17 | 41.92267 | -72.60797 | 28157 ft | 470 kts | 112° |
| 2026-04-26 13:18 | 41.90249 | -72.52404 | 28718 ft | 475 kts | 112° |
| 2026-04-26 13:18 | 41.89246 | -72.48168 | 29010 ft | 477 kts | 112° |
| 2026-04-26 13:18 | 41.87228 | -72.39630 | 29538 ft | 482 kts | 112° |
| 2026-04-26 13:19 | 41.86211 | -72.35337 | 29812 ft | 484 kts | 112° |
| 2026-04-26 13:19 | 41.85186 | -72.31015 | 30077 ft | 486 kts | 112° |
| 2026-04-26 13:19 | 41.84170 | -72.26745 | 30335 ft | 488 kts | 112° |
| 2026-04-26 13:19 | 41.83134 | -72.22398 | 30597 ft | 489 kts | 112° |
| 2026-04-26 13:20 | 41.82095 | -72.18044 | 30845 ft | 491 kts | 112° |
| 2026-04-26 13:20 | 41.81053 | -72.13689 | 31095 ft | 493 kts | 112° |
| 2026-04-26 13:20 | 41.80001 | -72.09298 | 31328 ft | 495 kts | 112° |
| 2026-04-26 13:21 | 41.77860 | -72.00387 | 31510 ft | 505 kts | 112° |
| 2026-04-26 13:21 | 41.77142 | -71.97411 | 31719 ft | 505 kts | 112° |
| 2026-04-26 13:21 | 41.75696 | -71.91418 | 32098 ft | 505 kts | 112° |
| 2026-04-26 13:21 | 41.74612 | -71.86938 | 32411 ft | 504 kts | 112° |
| 2026-04-26 13:22 | 41.73530 | -71.82478 | 32715 ft | 504 kts | 112° |
| 2026-04-26 13:22 | 41.72458 | -71.78061 | 33012 ft | 503 kts | 112° |
| 2026-04-26 13:22 | 41.71369 | -71.73587 | 33298 ft | 502 kts | 112° |
| 2026-04-26 13:22 | 41.70297 | -71.69191 | 33578 ft | 502 kts | 112° |
| 2026-04-26 13:23 | 41.69212 | -71.64749 | 33861 ft | 501 kts | 112° |
| 2026-04-26 13:23 | 41.68125 | -71.60309 | 34101 ft | 502 kts | 112° |
| 2026-04-26 13:23 | 41.67041 | -71.55887 | 34339 ft | 502 kts | 112° |
| 2026-04-26 13:23 | 41.65949 | -71.51440 | 34564 ft | 502 kts | 112° |
| 2026-04-26 13:24 | 41.64856 | -71.47003 | 34789 ft | 503 kts | 112° |
| 2026-04-26 13:24 | 41.63765 | -71.42576 | 34976 ft | 503 kts | 112° |
| 2026-04-26 13:24 | 41.62664 | -71.38123 | 35174 ft | 504 kts | 112° |
| 2026-04-26 13:24 | 41.61562 | -71.33670 | 35380 ft | 504 kts | 112° |
| 2026-04-26 13:25 | 41.60456 | -71.29212 | 35574 ft | 505 kts | 112° |
| 2026-04-26 13:25 | 41.59351 | -71.24764 | 35751 ft | 505 kts | 112° |
| 2026-04-26 13:25 | 41.58242 | -71.20309 | 35949 ft | 505 kts | 112° |
| 2026-04-26 13:25 | 41.57130 | -71.15854 | 36113 ft | 506 kts | 112° |
| 2026-04-26 13:26 | 41.56015 | -71.11393 | 36282 ft | 506 kts | 112° |
| 2026-04-26 13:26 | 41.54899 | -71.06935 | 36432 ft | 507 kts | 112° |
| 2026-04-26 13:26 | 41.53778 | -71.02468 | 36590 ft | 507 kts | 112° |
| 2026-04-26 13:26 | 41.52658 | -70.98011 | 36757 ft | 507 kts | 112° |
| 2026-04-26 13:27 | 41.51537 | -70.93556 | 36984 ft | 505 kts | 112° |
| 2026-04-26 13:27 | 41.50419 | -70.89128 | 37166 ft | 503 kts | 112° |
| 2026-04-26 13:27 | 41.49305 | -70.84720 | 37202 ft | 498 kts | 112° |
| 2026-04-26 13:28 | 41.47110 | -70.76061 | 37197 ft | 490 kts | 112° |
| 2026-04-26 13:28 | 41.44917 | -70.67437 | 37184 ft | 491 kts | 112° |
| 2026-04-26 13:29 | 41.42732 | -70.58879 | 37172 ft | 491 kts | 112° |
| 2026-04-26 13:29 | 41.40523 | -70.50255 | 37193 ft | 493 kts | 112° |
| 2026-04-26 13:30 | 41.38301 | -70.41618 | 37182 ft | 493 kts | 112° |
| 2026-04-26 13:30 | 41.36078 | -70.33001 | 37188 ft | 493 kts | 112° |
| 2026-04-26 13:31 | 41.33837 | -70.24342 | 37195 ft | 494 kts | 112° |
| 2026-04-26 13:31 | 41.31594 | -70.15700 | 37181 ft | 494 kts | 112° |
| 2026-04-26 13:32 | 41.29348 | -70.07076 | 37196 ft | 493 kts | 112° |
| 2026-04-26 13:32 | 41.27966 | -70.02947 | 37163 ft | 484 kts | 129° |
| 2026-04-26 13:32 | 41.25860 | -69.99560 | 37231 ft | 472 kts | 138° |
| 2026-04-26 13:33 | 41.21523 | -69.92902 | 37233 ft | 477 kts | 137° |
| 2026-04-26 13:33 | 41.17065 | -69.86303 | 37175 ft | 481 kts | 137° |
| 2026-04-26 13:34 | 41.12567 | -69.79705 | 37190 ft | 482 kts | 137° |
| 2026-04-26 13:34 | 41.08095 | -69.73163 | 37200 ft | 482 kts | 138° |
| 2026-04-26 13:35 | 41.03559 | -69.66542 | 37199 ft | 483 kts | 137° |
| 2026-04-26 13:35 | 40.99066 | -69.60005 | 37177 ft | 482 kts | 138° |
| 2026-04-26 13:36 | 40.94527 | -69.53445 | 37196 ft | 483 kts | 138° |
| 2026-04-26 13:36 | 40.89983 | -69.46886 | 37194 ft | 483 kts | 138° |
| 2026-04-26 13:37 | 40.85434 | -69.40335 | 37191 ft | 484 kts | 138° |
| 2026-04-26 13:37 | 40.80875 | -69.33783 | 37200 ft | 485 kts | 138° |
| 2026-04-26 13:38 | 40.76311 | -69.27239 | 37196 ft | 484 kts | 138° |
| 2026-04-26 13:38 | 40.71745 | -69.20705 | 37191 ft | 485 kts | 138° |
| 2026-04-26 13:39 | 40.67155 | -69.14152 | 37192 ft | 485 kts | 138° |
| 2026-04-26 13:39 | 40.62574 | -69.07626 | 37195 ft | 485 kts | 138° |
| 2026-04-26 13:40 | 40.57988 | -69.01108 | 37187 ft | 486 kts | 138° |
| 2026-04-26 13:40 | 40.53380 | -68.94571 | 37185 ft | 487 kts | 138° |
| 2026-04-26 13:41 | 40.48770 | -68.88048 | 37196 ft | 488 kts | 138° |
| 2026-04-26 13:41 | 40.44171 | -68.81552 | 37199 ft | 488 kts | 138° |
| 2026-04-26 13:42 | 40.39535 | -68.75019 | 37192 ft | 488 kts | 138° |
| 2026-04-26 13:42 | 40.34891 | -68.68489 | 37194 ft | 489 kts | 138° |
| 2026-04-26 13:43 | 40.30251 | -68.61978 | 37198 ft | 490 kts | 138° |
| 2026-04-26 13:43 | 40.25594 | -68.55458 | 37201 ft | 490 kts | 139° |
| 2026-04-26 13:44 | 40.20902 | -68.48903 | 37195 ft | 495 kts | 138° |
| 2026-04-26 13:44 | 40.16189 | -68.42334 | 37179 ft | 501 kts | 139° |
| 2026-04-26 13:45 | 40.11393 | -68.35663 | 37184 ft | 505 kts | 139° |
| 2026-04-26 13:45 | 40.06580 | -68.28982 | 37182 ft | 505 kts | 139° |
| 2026-04-26 13:46 | 40.01767 | -68.22314 | 37189 ft | 505 kts | 139° |
| 2026-04-26 13:46 | 39.97752 | -68.16762 | 37176 ft | 506 kts | 139° |
| 2026-04-26 13:47 | 39.92511 | -68.10893 | 37143 ft | 482 kts | 163° |
| 2026-04-26 13:47 | 39.86353 | -68.07524 | 37144 ft | 481 kts | 165° |
| 2026-04-26 13:48 | 39.80143 | -68.04241 | 37177 ft | 482 kts | 166° |
| 2026-04-26 13:48 | 39.73918 | -68.01027 | 37176 ft | 481 kts | 166° |
| 2026-04-26 13:49 | 39.67695 | -67.97830 | 37170 ft | 481 kts | 166° |
| 2026-04-26 13:49 | 39.61463 | -67.94635 | 37177 ft | 482 kts | 166° |
| 2026-04-26 13:50 | 39.55268 | -67.91464 | 37171 ft | 481 kts | 166° |
| 2026-04-26 13:50 | 39.49047 | -67.88286 | 37178 ft | 481 kts | 166° |
| 2026-04-26 13:51 | 39.42824 | -67.85115 | 37171 ft | 480 kts | 166° |
| 2026-04-26 13:51 | 39.36609 | -67.81952 | 37172 ft | 480 kts | 166° |
| 2026-04-26 13:52 | 39.30387 | -67.78792 | 37173 ft | 480 kts | 166° |
| 2026-04-26 13:52 | 39.24160 | -67.75637 | 37174 ft | 480 kts | 166° |
| 2026-04-26 13:53 | 39.17944 | -67.72492 | 37173 ft | 480 kts | 166° |
| 2026-04-26 13:53 | 39.11742 | -67.69360 | 37160 ft | 479 kts | 167° |
| 2026-04-26 13:54 | 39.05530 | -67.66229 | 37162 ft | 479 kts | 166° |
| 2026-04-26 13:54 | 38.99328 | -67.63111 | 37164 ft | 479 kts | 167° |
| 2026-04-26 13:55 | 38.91066 | -67.58962 | 37166 ft | 478 kts | 167° |
| 2026-04-26 13:56 | 38.80838 | -67.53418 | 37165 ft | 480 kts | 165° |
| 2026-04-26 13:56 | 38.74699 | -67.50064 | 37162 ft | 480 kts | 165° |
| 2026-04-26 13:57 | 38.68554 | -67.46717 | 37162 ft | 480 kts | 165° |
| 2026-04-26 13:57 | 38.62409 | -67.43376 | 37170 ft | 479 kts | 165° |
| 2026-04-26 13:58 | 38.56267 | -67.40044 | 37161 ft | 479 kts | 165° |
| 2026-04-26 13:58 | 38.50134 | -67.36722 | 37160 ft | 479 kts | 165° |
| 2026-04-26 13:59 | 38.43995 | -67.33403 | 37164 ft | 479 kts | 165° |
| 2026-04-26 13:59 | 38.37853 | -67.30088 | 37162 ft | 479 kts | 165° |
| 2026-04-26 14:00 | 38.25612 | -67.23500 | 37161 ft | 479 kts | 165° |
| 2026-04-26 14:01 | 38.19465 | -67.20201 | 37161 ft | 479 kts | 165° |
| 2026-04-26 14:01 | 38.13321 | -67.16910 | 37158 ft | 479 kts | 165° |
| 2026-04-26 14:02 | 38.07180 | -67.13627 | 37156 ft | 479 kts | 165° |
| 2026-04-26 14:02 | 38.01022 | -67.10340 | 37157 ft | 479 kts | 165° |
| 2026-04-26 14:03 | 37.94891 | -67.07074 | 37157 ft | 478 kts | 165° |
| 2026-04-26 14:03 | 37.88764 | -67.03816 | 37148 ft | 478 kts | 165° |
| 2026-04-26 14:04 | 37.82667 | -67.00579 | 37148 ft | 479 kts | 165° |
| 2026-04-26 14:04 | 37.76519 | -66.97321 | 37145 ft | 478 kts | 165° |
| 2026-04-26 14:05 | 37.70378 | -66.94073 | 37147 ft | 478 kts | 165° |
| 2026-04-26 14:05 | 37.64227 | -66.90826 | 37145 ft | 478 kts | 165° |
| 2026-04-26 14:06 | 37.58078 | -66.87585 | 37145 ft | 479 kts | 165° |
| 2026-04-26 14:06 | 37.51922 | -66.84345 | 37147 ft | 479 kts | 165° |
| 2026-04-26 14:07 | 37.45804 | -66.81132 | 37147 ft | 479 kts | 165° |
| 2026-04-26 14:07 | 37.39639 | -66.77897 | 37145 ft | 479 kts | 165° |
| 2026-04-26 14:08 | 37.33487 | -66.74674 | 37147 ft | 479 kts | 165° |
| 2026-04-26 14:08 | 37.27331 | -66.71454 | 37147 ft | 479 kts | 165° |
| 2026-04-26 14:09 | 37.21176 | -66.68241 | 37139 ft | 479 kts | 165° |
| 2026-04-26 14:09 | 37.15024 | -66.65034 | 37136 ft | 478 kts | 165° |
| 2026-04-26 14:10 | 37.08913 | -66.61855 | 37135 ft | 479 kts | 165° |
| 2026-04-26 14:10 | 37.02757 | -66.58658 | 37132 ft | 479 kts | 165° |
| 2026-04-26 14:11 | 36.93515 | -66.53869 | 37140 ft | 479 kts | 165° |
| 2026-04-26 14:11 | 36.87353 | -66.50683 | 37139 ft | 479 kts | 165° |
| 2026-04-26 14:12 | 36.81208 | -66.47512 | 37136 ft | 478 kts | 165° |
| 2026-04-26 14:12 | 36.75058 | -66.44343 | 37138 ft | 477 kts | 165° |
| 2026-04-26 14:13 | 36.65836 | -66.39601 | 37138 ft | 478 kts | 165° |
| 2026-04-26 14:14 | 36.59691 | -66.36449 | 37141 ft | 478 kts | 164° |
| 2026-04-26 14:14 | 36.53572 | -66.33315 | 37136 ft | 477 kts | 164° |
| 2026-04-26 14:15 | 36.47430 | -66.30175 | 37138 ft | 478 kts | 164° |
| 2026-04-26 14:15 | 36.41277 | -66.27035 | 37138 ft | 478 kts | 164° |
| 2026-04-26 14:16 | 36.35120 | -66.23898 | 37137 ft | 478 kts | 164° |
| 2026-04-26 14:16 | 36.28975 | -66.20772 | 37136 ft | 477 kts | 164° |
| 2026-04-26 14:17 | 36.22814 | -66.17644 | 37136 ft | 477 kts | 164° |
| 2026-04-26 14:17 | 36.16659 | -66.14524 | 37130 ft | 477 kts | 164° |
| 2026-04-26 14:18 | 36.10512 | -66.11414 | 37128 ft | 477 kts | 164° |
| 2026-04-26 14:18 | 36.04401 | -66.08327 | 37130 ft | 477 kts | 164° |
| 2026-04-26 14:19 | 35.98256 | -66.05227 | 37130 ft | 477 kts | 164° |
| 2026-04-26 14:19 | 35.92108 | -66.02133 | 37130 ft | 477 kts | 164° |
| 2026-04-26 14:20 | 35.85959 | -65.99041 | 37128 ft | 477 kts | 164° |
| 2026-04-26 14:20 | 35.79806 | -65.95954 | 37127 ft | 477 kts | 164° |
| 2026-04-26 14:21 | 35.73653 | -65.92871 | 37129 ft | 477 kts | 164° |
| 2026-04-26 14:21 | 35.67507 | -65.89798 | 37126 ft | 477 kts | 164° |
| 2026-04-26 14:22 | 35.61355 | -65.86726 | 37127 ft | 477 kts | 164° |
| 2026-04-26 14:22 | 35.55204 | -65.83660 | 37128 ft | 476 kts | 164° |
| 2026-04-26 14:23 | 35.49103 | -65.80625 | 37128 ft | 476 kts | 164° |
| 2026-04-26 14:23 | 35.42962 | -65.77573 | 37130 ft | 476 kts | 164° |
| 2026-04-26 14:24 | 35.36818 | -65.74525 | 37130 ft | 476 kts | 164° |
| 2026-04-26 14:24 | 35.30687 | -65.71488 | 37127 ft | 475 kts | 164° |
| 2026-04-26 14:25 | 35.24524 | -65.68650 | 37111 ft | 466 kts | 175° |
| 2026-04-26 14:25 | 35.18174 | -65.67340 | 37114 ft | 464 kts | 176° |
| 2026-04-26 14:26 | 35.11817 | -65.66000 | 37129 ft | 463 kts | 176° |
| 2026-04-26 14:26 | 35.05465 | -65.64682 | 37126 ft | 463 kts | 176° |
| 2026-04-26 14:27 | 34.99122 | -65.63369 | 37126 ft | 462 kts | 176° |
| 2026-04-26 14:27 | 34.92791 | -65.62062 | 37128 ft | 462 kts | 176° |
| 2026-04-26 14:28 | 34.86485 | -65.60761 | 37129 ft | 462 kts | 176° |
| 2026-04-26 14:28 | 34.80141 | -65.59454 | 37131 ft | 462 kts | 176° |
| 2026-04-26 14:29 | 34.73797 | -65.58150 | 37127 ft | 461 kts | 176° |
| 2026-04-26 14:29 | 34.67464 | -65.56850 | 37128 ft | 461 kts | 176° |
| 2026-04-26 14:30 | 34.61179 | -65.55562 | 37128 ft | 460 kts | 176° |
| 2026-04-26 14:30 | 34.54886 | -65.54274 | 37053 ft | 455 kts | 176° |
| 2026-04-26 14:30 | 34.51751 | -65.53633 | 36266 ft | 456 kts | 176° |
| 2026-04-26 14:31 | 34.48598 | -65.52989 | 35373 ft | 462 kts | 175° |
| 2026-04-26 14:31 | 34.45433 | -65.52342 | 34845 ft | 458 kts | 175° |
| 2026-04-26 14:31 | 34.42340 | -65.51711 | 34396 ft | 452 kts | 175° |
| 2026-04-26 14:31 | 34.39240 | -65.51079 | 33898 ft | 449 kts | 175° |
| 2026-04-26 14:32 | 34.36169 | -65.50454 | 33317 ft | 448 kts | 175° |
| 2026-04-26 14:32 | 34.33092 | -65.49828 | 32753 ft | 446 kts | 175° |
| 2026-04-26 14:32 | 34.31063 | -65.49415 | 32433 ft | 443 kts | 175° |
| 2026-04-26 14:32 | 34.28022 | -65.48796 | 31957 ft | 440 kts | 175° |
| 2026-04-26 14:33 | 34.25010 | -65.48185 | 31452 ft | 437 kts | 175° |
| 2026-04-26 14:33 | 34.22017 | -65.47578 | 30933 ft | 435 kts | 175° |
| 2026-04-26 14:33 | 34.19049 | -65.46976 | 30433 ft | 432 kts | 175° |
| 2026-04-26 14:33 | 34.16076 | -65.46374 | 29927 ft | 430 kts | 174° |
| 2026-04-26 14:34 | 34.13136 | -65.45779 | 29431 ft | 427 kts | 174° |
| 2026-04-26 14:34 | 34.10211 | -65.45186 | 28933 ft | 425 kts | 174° |
| 2026-04-26 14:34 | 34.07306 | -65.44599 | 28441 ft | 422 kts | 174° |
| 2026-04-26 14:34 | 34.04445 | -65.44021 | 27959 ft | 420 kts | 174° |
| 2026-04-26 14:35 | 34.01569 | -65.43440 | 27463 ft | 418 kts | 174° |
| 2026-04-26 14:35 | 33.98695 | -65.42860 | 26997 ft | 415 kts | 174° |
| 2026-04-26 14:35 | 33.95854 | -65.42286 | 26529 ft | 412 kts | 174° |
| 2026-04-26 14:35 | 33.93036 | -65.41719 | 26057 ft | 410 kts | 174° |
| 2026-04-26 14:36 | 33.90254 | -65.41159 | 25611 ft | 407 kts | 174° |
| 2026-04-26 14:36 | 33.87471 | -65.40599 | 25158 ft | 404 kts | 174° |
| 2026-04-26 14:36 | 33.84707 | -65.40043 | 24714 ft | 401 kts | 174° |
| 2026-04-26 14:36 | 33.81954 | -65.39489 | 24271 ft | 398 kts | 174° |
| 2026-04-26 14:37 | 33.79237 | -65.38943 | 23841 ft | 395 kts | 174° |
| 2026-04-26 14:37 | 33.76532 | -65.38400 | 23416 ft | 391 kts | 174° |
| 2026-04-26 14:37 | 33.73886 | -65.37869 | 23001 ft | 388 kts | 174° |
| 2026-04-26 14:37 | 33.71233 | -65.37343 | 22556 ft | 386 kts | 174° |
| 2026-04-26 14:38 | 33.68570 | -65.36817 | 22108 ft | 384 kts | 174° |
| 2026-04-26 14:38 | 33.65943 | -65.36299 | 21757 ft | 380 kts | 174° |
| 2026-04-26 14:38 | 33.63344 | -65.35786 | 21370 ft | 377 kts | 174° |
| 2026-04-26 14:38 | 33.60765 | -65.35278 | 20983 ft | 374 kts | 173° |
| 2026-04-26 14:39 | 33.58205 | -65.34774 | 20596 ft | 371 kts | 173° |
| 2026-04-26 14:39 | 33.55670 | -65.34274 | 20216 ft | 368 kts | 173° |
| 2026-04-26 14:39 | 33.53142 | -65.33777 | 19834 ft | 366 kts | 173° |
| 2026-04-26 14:39 | 33.50674 | -65.33292 | 19461 ft | 363 kts | 173° |
| 2026-04-26 14:40 | 33.48158 | -65.32798 | 19065 ft | 360 kts | 173° |
| 2026-04-26 14:40 | 33.45729 | -65.32321 | 18703 ft | 357 kts | 173° |
| 2026-04-26 14:40 | 33.43258 | -65.31836 | 18336 ft | 355 kts | 173° |
| 2026-04-26 14:40 | 33.40857 | -65.31365 | 17976 ft | 352 kts | 173° |
| 2026-04-26 14:41 | 33.38419 | -65.30887 | 17609 ft | 349 kts | 173° |
| 2026-04-26 14:41 | 33.36062 | -65.30425 | 17253 ft | 347 kts | 173° |
| 2026-04-26 14:41 | 33.33696 | -65.29961 | 16892 ft | 340 kts | 173° |
| 2026-04-26 14:41 | 33.31400 | -65.29512 | 16546 ft | 328 kts | 173° |
| 2026-04-26 14:42 | 33.29166 | -65.29075 | 16209 ft | 325 kts | 173° |
| 2026-04-26 14:42 | 33.26936 | -65.28639 | 15871 ft | 324 kts | 173° |
| 2026-04-26 14:42 | 33.24717 | -65.28205 | 15524 ft | 322 kts | 173° |
| 2026-04-26 14:42 | 33.22501 | -65.27773 | 15185 ft | 321 kts | 173° |
| 2026-04-26 14:43 | 33.20304 | -65.27344 | 14850 ft | 320 kts | 173° |
| 2026-04-26 14:43 | 33.18113 | -65.26917 | 14498 ft | 319 kts | 173° |
| 2026-04-26 14:43 | 33.15914 | -65.26487 | 14054 ft | 321 kts | 173° |
| 2026-04-26 14:43 | 33.13704 | -65.26056 | 13642 ft | 318 kts | 173° |
| 2026-04-26 14:44 | 33.11546 | -65.25636 | 13289 ft | 311 kts | 173° |
| 2026-04-26 14:44 | 33.09418 | -65.25221 | 12992 ft | 310 kts | 173° |
| 2026-04-26 14:44 | 33.07289 | -65.24807 | 12657 ft | 310 kts | 173° |
| 2026-04-26 14:44 | 33.05193 | -65.24230 | 12301 ft | 311 kts | 162° |
| 2026-04-26 14:45 | 33.03163 | -65.23336 | 11948 ft | 311 kts | 162° |
| 2026-04-26 14:45 | 33.01811 | -65.22762 | 11727 ft | 310 kts | 162° |
| 2026-04-26 14:45 | 32.99098 | -65.21640 | 11295 ft | 307 kts | 163° |
| 2026-04-26 14:45 | 32.97100 | -65.20830 | 10970 ft | 306 kts | 163° |
| 2026-04-26 14:46 | 32.95089 | -65.20021 | 10645 ft | 304 kts | 163° |
| 2026-04-26 14:46 | 32.93092 | -65.19223 | 10383 ft | 301 kts | 163° |
| 2026-04-26 14:46 | 32.91106 | -65.18432 | 10246 ft | 300 kts | 163° |
| 2026-04-26 14:46 | 32.89121 | -65.17642 | 10130 ft | 301 kts | 163° |
| 2026-04-26 14:47 | 32.87132 | -65.16852 | 9821 ft | 302 kts | 163° |
| 2026-04-26 14:47 | 32.85135 | -65.16045 | 9459 ft | 303 kts | 163° |
| 2026-04-26 14:47 | 32.83138 | -65.15234 | 9098 ft | 303 kts | 163° |
| 2026-04-26 14:47 | 32.81146 | -65.14426 | 8748 ft | 302 kts | 162° |
| 2026-04-26 14:48 | 32.79153 | -65.13618 | 8386 ft | 302 kts | 162° |
| 2026-04-26 14:48 | 32.77166 | -65.12813 | 8028 ft | 301 kts | 162° |
| 2026-04-26 14:48 | 32.75207 | -65.12020 | 7673 ft | 293 kts | 162° |
| 2026-04-26 14:48 | 32.73320 | -65.11257 | 7410 ft | 281 kts | 163° |
| 2026-04-26 14:49 | 32.71506 | -65.10523 | 7141 ft | 270 kts | 162° |
| 2026-04-26 14:49 | 32.69757 | -65.09814 | 6873 ft | 260 kts | 162° |
| 2026-04-26 14:49 | 32.68071 | -65.09133 | 6600 ft | 251 kts | 162° |
| 2026-04-26 14:49 | 32.66443 | -65.08476 | 6326 ft | 243 kts | 162° |
| 2026-04-26 14:50 | 32.64859 | -65.07836 | 6062 ft | 239 kts | 163° |
| 2026-04-26 14:50 | 32.63303 | -65.07208 | 5830 ft | 239 kts | 162° |
| 2026-04-26 14:50 | 32.61730 | -65.06576 | 5617 ft | 239 kts | 162° |
| 2026-04-26 14:50 | 32.60158 | -65.05939 | 5401 ft | 239 kts | 162° |
| 2026-04-26 14:51 | 32.58572 | -65.05300 | 5153 ft | 237 kts | 162° |
| 2026-04-26 14:51 | 32.57034 | -65.04681 | 4898 ft | 235 kts | 161° |
| 2026-04-26 14:51 | 32.55497 | -65.04062 | 4706 ft | 230 kts | 161° |
| 2026-04-26 14:51 | 32.53989 | -65.03455 | 4668 ft | 228 kts | 161° |
| 2026-04-26 14:52 | 32.52487 | -65.02849 | 4678 ft | 230 kts | 161° |
| 2026-04-26 14:52 | 32.50968 | -65.02238 | 4679 ft | 230 kts | 161° |
| 2026-04-26 14:52 | 32.49454 | -65.01629 | 4689 ft | 230 kts | 161° |
| 2026-04-26 14:52 | 32.47939 | -65.01020 | 4682 ft | 230 kts | 161° |
| 2026-04-26 14:53 | 32.46410 | -65.00406 | 4401 ft | 235 kts | 161° |
| 2026-04-26 14:53 | 32.44837 | -64.99773 | 3945 ft | 242 kts | 161° |
| 2026-04-26 14:53 | 32.43237 | -64.99081 | 3531 ft | 244 kts | 152° |
| 2026-04-26 14:53 | 32.41974 | -64.97801 | 3140 ft | 235 kts | 123° |
| 2026-04-26 14:54 | 32.41358 | -64.96130 | 3090 ft | 209 kts | 105° |
| 2026-04-26 14:54 | 32.41036 | -64.94546 | 3037 ft | 187 kts | 102° |
| 2026-04-26 14:54 | 32.40782 | -64.93115 | 2992 ft | 174 kts | 101° |
| 2026-04-26 14:54 | 32.40537 | -64.91712 | 3053 ft | 174 kts | 101° |
| 2026-04-26 14:55 | 32.40299 | -64.90338 | 3033 ft | 161 kts | 101° |
| 2026-04-26 14:55 | 32.40084 | -64.89104 | 3034 ft | 148 kts | 101° |
| 2026-04-26 14:55 | 32.39879 | -64.87920 | 3058 ft | 147 kts | 101° |
| 2026-04-26 14:55 | 32.39678 | -64.86757 | 2855 ft | 145 kts | 101° |
| 2026-04-26 14:56 | 32.39476 | -64.85591 | 2717 ft | 145 kts | 101° |
| 2026-04-26 14:56 | 32.39274 | -64.84422 | 2533 ft | 145 kts | 101° |
| 2026-04-26 14:56 | 32.39073 | -64.83263 | 2354 ft | 144 kts | 101° |
| 2026-04-26 14:56 | 32.38872 | -64.82107 | 2165 ft | 143 kts | 101° |
| 2026-04-26 14:57 | 32.38674 | -64.80953 | 1991 ft | 143 kts | 102° |
| 2026-04-26 14:57 | 32.38473 | -64.79799 | 1802 ft | 142 kts | 102° |
| 2026-04-26 14:57 | 32.38275 | -64.78655 | 1619 ft | 142 kts | 102° |
| 2026-04-26 14:57 | 32.38075 | -64.77512 | 1430 ft | 142 kts | 102° |
| 2026-04-26 14:58 | 32.37878 | -64.76372 | 1248 ft | 142 kts | 103° |
| 2026-04-26 14:58 | 32.37685 | -64.75232 | 1061 ft | 141 kts | 102° |
| 2026-04-26 14:58 | 32.37483 | -64.74097 | 854 ft | 141 kts | 103° |
| 2026-04-26 14:58 | 32.37267 | -64.72976 | 644 ft | 140 kts | 104° |
| 2026-04-26 14:59 | 32.37093 | -64.71835 | 414 ft | 140 kts | 102° |
| 2026-04-26 14:59 | 32.36895 | -64.70707 | 251 ft | 140 kts | 102° |
| 2026-04-26 14:59 | 32.36701 | -64.69576 | 70 ft | 140 kts | 101° |
| 2026-04-26 14:59 | 32.36576 | -64.68838 | 10 ft | 131 kts | 101° |
| 2026-04-26 15:00 | 32.36465 | -64.68206 | 9 ft | 0 kts | 101° |
| 2026-04-26 15:00 | 32.36462 | -64.68187 | 9 ft | 5 kts | 101° |
| 2026-04-26 15:00 | 32.36450 | -64.68116 | 8 ft | 14 kts | 101° |
| 2026-04-26 15:00 | 32.36424 | -64.67958 | 7 ft | 22 kts | 101° |
| 2026-04-26 15:01 | 32.36458 | -64.67826 | 6 ft | 19 kts | 21° |
| 2026-04-26 15:01 | 32.36549 | -64.67892 | 9 ft | 18 kts | 284° |
| 2026-04-26 15:01 | 32.36576 | -64.68038 | 8 ft | 19 kts | 282° |
| 2026-04-26 15:01 | 32.36602 | -64.68199 | 8 ft | 20 kts | 281° |
| 2026-04-26 15:02 | 32.36631 | -64.68368 | 8 ft | 22 kts | 282° |
| 2026-04-26 15:02 | 32.36663 | -64.68551 | 9 ft | 23 kts | 282° |
| 2026-04-26 15:02 | 32.36697 | -64.68745 | 7 ft | 25 kts | 281° |
| 2026-04-26 15:02 | 32.36698 | -64.68948 | 7 ft | 25 kts | 250° |
| 2026-04-26 15:03 | 32.36629 | -64.69141 | 6 ft | 26 kts | 247° |
| 2026-04-26 15:03 | 32.36555 | -64.69347 | 8 ft | 28 kts | 247° |
| 2026-04-26 15:03 | 32.36481 | -64.69557 | 8 ft | 27 kts | 247° |
| 2026-04-26 15:03 | 32.36414 | -64.69748 | 7 ft | 25 kts | 247° |
| 2026-04-26 15:04 | 32.36347 | -64.69937 | 7 ft | 25 kts | 247° |
| 2026-04-26 15:04 | 32.36280 | -64.70125 | 7 ft | 22 kts | 251° |
| 2026-04-26 15:04 | 32.36323 | -64.70229 | 8 ft | 10 kts | 313° |
| 2026-04-26 15:04 | 32.36329 | -64.70245 | 7 ft | 3 kts | 265° |
| 2026-04-26 15:05 | 32.36318 | -64.70286 | 7 ft | 8 kts | 250° |
| 2026-04-26 15:05 | 32.36311 | -64.70308 | 7 ft | 7 kts | 250° |
| 2026-04-26 15:05 | 32.36299 | -64.70346 | 7 ft | 1 kts | 250° |
| 2026-04-26 15:05 | 32.36299 | -64.70347 | 7 ft | 0 kts | 250° |